createdAt,value
2023-09-22T00:00:33.575Z,17.60
2023-09-22T00:03:01.699Z,17.60
2023-09-22T00:05:29.772Z,17.60
2023-09-22T00:07:59.065Z,17.60
2023-09-22T00:10:27.069Z,17.70
2023-09-22T00:12:56.417Z,17.60
2023-09-22T00:15:24.367Z,17.60
2023-09-22T00:17:52.484Z,17.60
2023-09-22T00:20:21.850Z,17.60
2023-09-22T00:22:49.806Z,17.70
2023-09-22T00:25:19.311Z,17.70
2023-09-22T00:27:47.345Z,17.60
2023-09-22T00:30:15.516Z,17.60
2023-09-22T00:32:43.669Z,17.60
2023-09-22T00:35:13.700Z,17.60
2023-09-22T00:37:42.214Z,17.50
2023-09-22T00:40:11.234Z,17.50
2023-09-22T00:42:40.644Z,17.50
2023-09-22T00:45:09.449Z,17.50
2023-09-22T00:47:37.484Z,17.50
2023-09-22T00:50:06.751Z,17.50
2023-09-22T00:52:34.902Z,17.40
2023-09-22T00:55:02.880Z,17.40
2023-09-22T00:57:30.913Z,17.40
2023-09-22T01:00:00.344Z,17.40
2023-09-22T01:02:30.438Z,17.40
2023-09-22T01:04:58.908Z,17.40
2023-09-22T01:07:27.486Z,17.40
2023-09-22T01:09:55.454Z,17.40
2023-09-22T01:12:23.531Z,17.40
2023-09-22T01:14:51.470Z,17.50
2023-09-22T01:17:20.781Z,17.50
2023-09-22T01:19:48.784Z,17.50
2023-09-22T01:22:18.099Z,17.40
2023-09-22T01:24:46.091Z,17.40
2023-09-22T01:27:14.111Z,17.40
2023-09-22T01:29:42.458Z,17.40
2023-09-22T01:32:11.020Z,17.30
2023-09-22T01:34:39.420Z,17.30
2023-09-22T01:37:08.910Z,17.20
2023-09-22T01:39:39.665Z,17.20
2023-09-22T01:42:09.442Z,17.20
2023-09-22T01:44:37.427Z,17.10
2023-09-22T01:47:05.513Z,17.10
2023-09-22T01:49:33.956Z,17.10
2023-09-22T01:52:02.395Z,17.10
2023-09-22T01:54:30.475Z,17.00
2023-09-22T01:56:59.948Z,17.10
2023-09-22T01:59:27.928Z,17.10
2023-09-22T02:01:55.970Z,17.00
2023-09-22T02:04:24.255Z,17.00
2023-09-22T02:06:52.945Z,17.10
2023-09-22T02:09:21.016Z,17.00
2023-09-22T02:11:48.965Z,17.00
2023-09-22T02:14:18.266Z,17.00
2023-09-22T02:16:46.755Z,17.00
2023-09-22T02:19:14.776Z,17.00
2023-09-22T02:21:42.798Z,16.90
2023-09-22T02:24:10.864Z,17.00
2023-09-22T02:26:39.370Z,16.90
2023-09-22T02:29:07.502Z,16.90
2023-09-22T02:31:36.961Z,16.90
2023-09-22T02:34:04.924Z,16.90
2023-09-22T02:36:33.465Z,16.90
2023-09-22T02:39:01.472Z,16.90
2023-09-22T02:41:29.378Z,16.90
2023-09-22T02:43:58.018Z,16.80
2023-09-22T02:46:26.095Z,16.90
2023-09-22T02:48:55.606Z,16.90
2023-09-22T02:51:23.596Z,16.90
2023-09-22T02:53:51.846Z,16.80
2023-09-22T02:56:19.808Z,16.80
2023-09-22T02:58:47.893Z,16.80
2023-09-22T03:01:16.489Z,16.80
2023-09-22T03:03:44.728Z,16.70
2023-09-22T03:06:14.264Z,16.70
2023-09-22T03:08:42.341Z,16.60
2023-09-22T03:11:12.365Z,16.60
2023-09-22T03:13:42.061Z,16.60
2023-09-22T03:16:10.169Z,16.50
2023-09-22T03:18:38.356Z,16.50
2023-09-22T03:21:06.523Z,16.40
2023-09-22T03:23:35.833Z,16.40
2023-09-22T03:26:05.470Z,16.40
2023-09-22T03:28:33.434Z,16.40
2023-09-22T03:31:01.604Z,16.40
2023-09-22T03:33:29.591Z,16.30
2023-09-22T03:35:58.472Z,16.40
2023-09-22T03:38:27.160Z,16.40
2023-09-22T03:41:01.967Z,16.40
2023-09-22T03:43:30.025Z,16.40
2023-09-22T03:45:58.031Z,16.40
2023-09-22T03:48:26.072Z,16.40
2023-09-22T03:50:54.651Z,16.40
2023-09-22T03:53:24.173Z,16.40
2023-09-22T03:55:52.265Z,16.40
2023-09-22T03:58:21.609Z,16.40
2023-09-22T04:00:50.233Z,16.40
2023-09-22T04:03:18.989Z,16.40
2023-09-22T04:05:47.090Z,16.40
2023-09-22T04:08:15.027Z,16.30
2023-09-22T04:10:43.015Z,16.40
2023-09-22T04:13:11.044Z,16.40
2023-09-22T04:15:40.590Z,16.30
2023-09-22T04:18:08.598Z,16.30
2023-09-22T04:20:38.863Z,16.20
2023-09-22T04:23:06.878Z,16.30
2023-09-22T04:25:38.903Z,16.20
2023-09-22T04:28:14.255Z,16.20
2023-09-22T04:30:43.644Z,16.20
2023-09-22T04:33:12.743Z,16.20
2023-09-22T04:35:41.930Z,16.20
2023-09-22T04:38:12.098Z,16.20
2023-09-22T04:40:40.635Z,16.20
2023-09-22T04:43:09.043Z,16.10
2023-09-22T04:45:41.701Z,16.20
2023-09-22T04:48:11.494Z,16.20
2023-09-22T04:50:39.916Z,16.20
2023-09-22T04:53:08.930Z,16.20
2023-09-22T04:55:37.585Z,16.20
2023-09-22T04:58:07.229Z,16.20
2023-09-22T05:00:35.668Z,16.20
2023-09-22T05:03:04.187Z,16.20
2023-09-22T05:05:34.784Z,16.20
2023-09-22T05:08:02.754Z,16.20
2023-09-22T05:10:32.973Z,16.20
2023-09-22T05:13:01.671Z,16.20
2023-09-22T05:15:30.378Z,16.20
2023-09-22T05:17:58.581Z,16.20
2023-09-22T05:20:27.309Z,16.30
2023-09-22T05:22:56.635Z,16.30
2023-09-22T05:25:24.650Z,16.30
2023-09-22T05:27:52.743Z,16.30
2023-09-22T05:30:23.261Z,16.30
2023-09-22T05:32:51.552Z,16.40
2023-09-22T05:35:19.517Z,16.40
2023-09-22T05:37:47.580Z,16.40
2023-09-22T05:40:17.658Z,16.50
2023-09-22T05:42:45.732Z,16.50
2023-09-22T05:45:13.800Z,16.60
2023-09-22T05:47:41.900Z,16.70
2023-09-22T05:50:12.451Z,16.80
2023-09-22T05:52:43.625Z,16.90
2023-09-22T05:55:13.624Z,17.00
2023-09-22T05:57:43.366Z,17.00
2023-09-22T06:00:17.799Z,17.20
2023-09-22T06:02:52.848Z,17.20
2023-09-22T06:05:20.228Z,17.30
2023-09-22T06:07:48.189Z,17.40
2023-09-22T06:10:16.138Z,17.50
2023-09-22T06:12:46.179Z,17.60
2023-09-22T06:15:14.823Z,17.70
2023-09-22T06:17:42.950Z,17.80
2023-09-22T06:20:14.853Z,17.90
2023-09-22T06:22:45.767Z,18.00
2023-09-22T06:25:15.223Z,18.20
2023-09-22T06:27:45.047Z,18.30
2023-09-22T06:30:13.631Z,18.40
2023-09-22T06:32:43.174Z,18.40
2023-09-22T06:35:12.096Z,18.50
2023-09-22T06:37:40.833Z,18.60
2023-09-22T06:40:12.706Z,18.60
2023-09-22T06:42:42.960Z,18.70
2023-09-22T06:45:12.754Z,18.70
2023-09-22T06:47:42.332Z,18.70
2023-09-22T06:50:12.904Z,18.70
2023-09-22T06:52:42.253Z,18.70
2023-09-22T06:55:11.034Z,18.70
2023-09-22T06:57:41.789Z,18.70
2023-09-22T07:00:19.484Z,18.70
2023-09-22T07:02:48.914Z,18.80
2023-09-22T07:05:17.172Z,18.80
2023-09-22T07:07:45.812Z,18.90
2023-09-22T07:10:14.157Z,19.00
2023-09-22T07:12:43.138Z,19.00
2023-09-22T07:15:12.796Z,19.00
2023-09-22T07:17:42.784Z,19.10
2023-09-22T07:20:13.533Z,19.20
2023-09-22T07:22:42.414Z,19.20
2023-09-22T07:25:10.943Z,19.30
2023-09-22T07:27:41.058Z,19.30
2023-09-22T07:30:11.847Z,19.40
2023-09-22T07:32:42.175Z,19.50
2023-09-22T07:35:10.803Z,19.50
2023-09-22T07:37:38.877Z,19.50
2023-09-22T07:40:10.821Z,19.50
2023-09-22T07:42:40.950Z,19.50
2023-09-22T07:45:09.957Z,19.60
2023-09-22T07:47:38.586Z,19.70
2023-09-22T07:50:08.686Z,19.90
2023-09-22T07:52:36.770Z,20.00
2023-09-22T07:55:06.621Z,20.10
2023-09-22T07:57:35.187Z,20.30
2023-09-22T08:00:04.708Z,20.40
2023-09-22T08:02:32.938Z,20.40
2023-09-22T08:05:01.265Z,20.40
2023-09-22T08:07:30.563Z,20.50
2023-09-22T08:09:58.559Z,20.50
2023-09-22T08:12:26.840Z,20.40
2023-09-22T08:14:58.069Z,20.50
2023-09-22T08:17:26.584Z,20.50
2023-09-22T08:19:55.070Z,20.50
2023-09-22T08:22:23.210Z,20.50
2023-09-22T08:24:52.661Z,20.50
2023-09-22T08:27:20.792Z,20.50
2023-09-22T08:29:51.418Z,20.50
2023-09-22T08:32:19.428Z,20.60
2023-09-22T08:34:47.590Z,20.60
2023-09-22T08:37:15.793Z,20.60
2023-09-22T08:39:43.923Z,20.70
2023-09-22T08:42:13.303Z,20.80
2023-09-22T08:44:41.293Z,20.80
2023-09-22T08:47:09.385Z,21.00
2023-09-22T08:49:37.600Z,21.10
2023-09-22T08:52:05.979Z,21.30
2023-09-22T08:54:34.009Z,21.30
2023-09-22T08:57:02.037Z,21.40
2023-09-22T08:59:31.603Z,21.50
2023-09-22T09:02:00.273Z,21.50
2023-09-22T09:04:32.500Z,21.60
2023-09-22T09:07:00.642Z,21.80
2023-09-22T09:09:28.837Z,21.90
2023-09-22T09:12:00.633Z,22.00
2023-09-22T09:14:29.973Z,22.00
2023-09-22T09:16:59.471Z,22.00
2023-09-22T09:19:29.176Z,22.00
2023-09-22T09:22:11.303Z,22.10
2023-09-22T09:24:39.641Z,22.20
2023-09-22T09:27:18.896Z,22.30
2023-09-22T09:29:48.537Z,22.40
2023-09-22T09:32:28.034Z,22.30
2023-09-22T09:34:56.852Z,22.30
2023-09-22T09:37:25.054Z,22.30
2023-09-22T09:39:54.079Z,22.20
2023-09-22T09:42:24.069Z,22.20
2023-09-22T09:44:53.174Z,22.20
2023-09-22T09:47:28.242Z,22.30
2023-09-22T09:49:59.675Z,22.30
2023-09-22T09:52:29.983Z,22.40
2023-09-22T09:55:10.372Z,22.50
2023-09-22T09:57:39.875Z,22.60
2023-09-22T10:00:15.224Z,22.70
2023-09-22T10:02:45.473Z,22.90
2023-09-22T10:05:19.990Z,23.20
2023-09-22T10:07:50.236Z,23.20
2023-09-22T10:10:19.205Z,23.10
2023-09-22T10:12:47.202Z,23.10
2023-09-22T10:15:15.128Z,23.20
2023-09-22T10:17:43.189Z,23.20
2023-09-22T10:20:13.082Z,23.20
2023-09-22T10:22:42.526Z,23.20
2023-09-22T10:25:31.566Z,23.30
2023-09-22T10:28:05.460Z,23.30
2023-09-22T10:31:03.016Z,23.40
2023-09-22T10:33:33.622Z,23.40
2023-09-22T10:36:02.517Z,23.40
2023-09-22T10:38:31.862Z,23.60
2023-09-22T10:41:06.480Z,23.70
2023-09-22T10:43:35.545Z,23.70
2023-09-22T10:46:03.914Z,23.80
2023-09-22T10:48:36.164Z,23.90
2023-09-22T10:51:05.237Z,23.80
2023-09-22T10:53:39.954Z,23.90
2023-09-22T10:56:08.129Z,24.00
2023-09-22T10:58:36.361Z,24.20
2023-09-22T11:01:06.368Z,24.20
2023-09-22T11:03:36.422Z,24.10
2023-09-22T11:06:07.703Z,24.10
2023-09-22T11:08:48.078Z,24.20
2023-09-22T11:11:17.531Z,24.10
2023-09-22T11:13:52.509Z,24.30
2023-09-22T11:16:21.089Z,24.40
2023-09-22T11:18:49.757Z,24.40
2023-09-22T11:21:18.471Z,24.50
2023-09-22T11:23:48.621Z,24.50
2023-09-22T11:26:16.894Z,24.50
2023-09-22T11:28:45.417Z,24.60
2023-09-22T11:31:14.778Z,24.60
2023-09-22T11:33:42.943Z,24.90
2023-09-22T11:36:11.312Z,25.00
2023-09-22T11:38:41.435Z,25.00
2023-09-22T11:41:12.126Z,25.00
2023-09-22T11:43:41.186Z,25.00
2023-09-22T11:46:13.207Z,24.90
2023-09-22T11:48:57.810Z,25.10
2023-09-22T11:51:41.933Z,25.20
2023-09-22T11:54:10.125Z,25.40
2023-09-22T11:56:39.451Z,25.40
2023-09-22T11:59:08.036Z,25.50
2023-09-22T12:01:36.255Z,25.40
2023-09-22T12:04:05.839Z,25.50
2023-09-22T12:06:34.047Z,25.40
2023-09-22T12:09:02.062Z,25.50
2023-09-22T12:11:30.006Z,25.60
2023-09-22T12:14:00.095Z,25.70
2023-09-22T12:16:28.437Z,25.60
2023-09-22T12:18:56.355Z,25.50
2023-09-22T12:21:24.416Z,25.40
2023-09-22T12:23:52.392Z,25.40
2023-09-22T12:26:20.418Z,25.30
2023-09-22T12:28:48.456Z,25.20
2023-09-22T12:31:18.137Z,25.40
2023-09-22T12:33:46.700Z,25.50
2023-09-22T12:36:16.402Z,25.50
2023-09-22T12:38:44.358Z,25.70
2023-09-22T12:41:12.801Z,25.80
2023-09-22T12:43:40.905Z,25.70
2023-09-22T12:46:10.113Z,25.70
2023-09-22T12:48:41.453Z,25.70
2023-09-22T12:51:12.216Z,25.60
2023-09-22T12:53:40.455Z,25.50
2023-09-22T12:56:08.643Z,25.40
2023-09-22T12:58:36.857Z,25.50
2023-09-22T13:01:06.573Z,25.60
2023-09-22T13:03:36.030Z,25.50
2023-09-22T13:06:05.830Z,25.60
2023-09-22T13:08:34.481Z,25.70
2023-09-22T13:11:03.841Z,25.70
2023-09-22T13:13:32.664Z,25.60
2023-09-22T13:16:00.853Z,25.60
2023-09-22T13:18:29.002Z,25.40
2023-09-22T13:20:57.917Z,25.30
2023-09-22T13:23:27.240Z,25.20
2023-09-22T13:25:56.212Z,25.10
2023-09-22T13:28:24.352Z,25.10
2023-09-22T13:30:55.517Z,25.10
2023-09-22T13:33:24.099Z,25.10
2023-09-22T13:35:52.499Z,25.10
2023-09-22T13:38:20.665Z,25.00
2023-09-22T13:40:51.560Z,25.00
2023-09-22T13:43:22.001Z,25.00
2023-09-22T13:45:50.127Z,25.00
2023-09-22T13:48:18.185Z,24.90
2023-09-22T13:50:52.229Z,24.90
2023-09-22T13:53:20.366Z,24.80
2023-09-22T13:55:50.400Z,24.80
2023-09-22T13:58:18.367Z,24.70
2023-09-22T14:00:46.665Z,24.70
2023-09-22T14:03:15.507Z,24.60
2023-09-22T14:05:43.819Z,24.60
2023-09-22T14:08:11.869Z,24.60
2023-09-22T14:10:40.089Z,24.60
2023-09-22T14:13:09.631Z,24.60
2023-09-22T14:15:37.581Z,24.60
2023-09-22T14:18:06.783Z,24.50
2023-09-22T14:20:35.829Z,24.50
2023-09-22T14:23:03.888Z,24.40
2023-09-22T14:25:31.857Z,24.40
2023-09-22T14:27:59.854Z,24.40
2023-09-22T14:30:29.165Z,24.50
2023-09-22T14:32:57.720Z,24.40
2023-09-22T14:35:26.890Z,24.40
2023-09-22T14:37:54.877Z,24.30
2023-09-22T14:40:22.852Z,24.20
2023-09-22T14:42:51.054Z,24.20
2023-09-22T14:45:19.076Z,24.20
2023-09-22T14:47:48.527Z,24.20
2023-09-22T14:50:19.805Z,24.10
2023-09-22T14:52:47.858Z,24.00
2023-09-22T14:55:15.920Z,24.10
2023-09-22T14:57:43.856Z,24.00
2023-09-22T15:00:14.018Z,23.90
2023-09-22T15:02:42.719Z,23.90
2023-09-22T15:05:12.239Z,23.80
2023-09-22T15:07:40.466Z,23.80
2023-09-22T15:10:09.568Z,23.80
2023-09-22T15:12:37.529Z,23.70
2023-09-22T15:15:06.584Z,23.70
2023-09-22T15:17:34.994Z,23.70
2023-09-22T15:20:03.069Z,23.70
2023-09-22T15:22:32.878Z,23.60
2023-09-22T15:25:00.998Z,23.60
2023-09-22T15:27:28.978Z,23.60
2023-09-22T15:29:57.059Z,23.50
2023-09-22T15:32:25.082Z,23.40
2023-09-22T15:34:53.211Z,23.30
2023-09-22T15:37:21.214Z,23.30
2023-09-22T15:39:50.842Z,23.20
2023-09-22T15:42:18.805Z,23.20
2023-09-22T15:44:46.807Z,23.10
2023-09-22T15:47:15.922Z,23.10
2023-09-22T15:49:43.972Z,23.00
2023-09-22T15:52:11.909Z,23.00
2023-09-22T15:54:40.111Z,22.90
2023-09-22T15:57:10.277Z,22.90
2023-09-22T15:59:38.200Z,22.90
2023-09-22T16:02:07.375Z,22.80
2023-09-22T16:04:35.509Z,22.80
2023-09-22T16:07:03.459Z,22.80
2023-09-22T16:09:33.720Z,22.70
2023-09-22T16:12:01.676Z,22.70
2023-09-22T16:14:44.982Z,22.60
2023-09-22T16:17:12.984Z,22.50
2023-09-22T16:19:41.203Z,22.60
2023-09-22T16:22:10.723Z,22.50
2023-09-22T16:24:38.676Z,22.50
2023-09-22T16:27:06.654Z,22.40
2023-09-22T16:29:36.550Z,22.30
2023-09-22T16:32:04.543Z,22.30
2023-09-22T16:34:32.785Z,22.30
2023-09-22T16:37:00.984Z,22.30
2023-09-22T16:39:29.082Z,22.20
2023-09-22T16:41:57.059Z,22.20
2023-09-22T16:44:25.601Z,22.20
2023-09-22T16:46:55.094Z,22.10
2023-09-22T16:49:24.353Z,22.10
2023-09-22T16:51:52.475Z,22.10
2023-09-22T16:54:20.453Z,22.00
2023-09-22T16:56:48.426Z,22.00
2023-09-22T16:59:17.050Z,22.00
2023-09-22T17:01:45.132Z,22.00
2023-09-22T17:04:14.504Z,21.90
2023-09-22T17:06:42.597Z,21.90
2023-09-22T17:09:11.120Z,21.90
2023-09-22T17:11:39.179Z,21.90
2023-09-22T17:14:07.223Z,21.90
2023-09-22T17:16:35.297Z,21.90
2023-09-22T17:19:03.956Z,22.00
2023-09-22T17:21:33.362Z,22.00
2023-09-22T17:24:01.344Z,22.00
2023-09-22T17:26:29.849Z,22.00
2023-09-22T17:28:58.067Z,21.90
2023-09-22T17:31:26.274Z,21.90
2023-09-22T17:33:54.752Z,21.90
2023-09-22T17:36:22.720Z,21.90
2023-09-22T17:38:52.007Z,21.90
2023-09-22T17:41:24.340Z,21.80
2023-09-22T17:43:52.352Z,21.80
2023-09-22T17:46:20.479Z,21.80
2023-09-22T17:48:48.541Z,21.70
2023-09-22T17:51:16.528Z,21.80
2023-09-22T17:53:45.288Z,21.70
2023-09-22T17:56:14.818Z,21.70
2023-09-22T17:58:42.971Z,21.70
2023-09-22T18:01:12.811Z,21.70
2023-09-22T18:03:43.243Z,21.70
2023-09-22T18:06:11.764Z,21.60
2023-09-22T18:08:39.777Z,21.60
2023-09-22T18:11:07.873Z,21.70
2023-09-22T18:13:41.100Z,21.60
2023-09-22T18:16:09.170Z,21.70
2023-09-22T18:18:37.778Z,21.60
2023-09-22T18:21:07.035Z,21.50
2023-09-22T18:23:37.249Z,21.50
2023-09-22T18:26:06.847Z,21.60
2023-09-22T18:28:35.166Z,21.70
2023-09-22T18:31:05.188Z,21.70
2023-09-22T18:33:33.315Z,21.70
2023-09-22T18:36:01.853Z,21.70
2023-09-22T18:38:29.776Z,21.60
2023-09-22T18:40:58.046Z,21.50
2023-09-22T18:43:26.137Z,21.50
2023-09-22T18:45:54.841Z,21.30
2023-09-22T18:48:24.214Z,21.20
2023-09-22T18:50:52.520Z,21.30
2023-09-22T18:53:21.277Z,21.20
2023-09-22T18:55:52.355Z,21.20
2023-09-22T18:58:20.541Z,21.10
2023-09-22T19:00:48.578Z,21.10
2023-09-22T19:03:19.871Z,21.00
2023-09-22T19:05:50.178Z,21.00
2023-09-22T19:08:18.147Z,21.00
2023-09-22T19:10:49.090Z,21.00
2023-09-22T19:13:17.309Z,20.90
2023-09-22T19:15:45.720Z,20.80
2023-09-22T19:18:14.002Z,20.70
2023-09-22T19:20:41.967Z,20.60
2023-09-22T19:23:11.689Z,20.50
2023-09-22T19:25:40.922Z,20.30
2023-09-22T19:28:11.161Z,20.30
2023-09-22T19:30:42.355Z,20.20
2023-09-22T19:33:11.276Z,20.20
2023-09-22T19:35:40.857Z,20.00
2023-09-22T19:38:09.581Z,20.00
2023-09-22T19:40:39.829Z,19.90
2023-09-22T19:43:07.983Z,19.90
2023-09-22T19:45:36.035Z,19.90
2023-09-22T19:48:04.123Z,19.90
2023-09-22T19:50:34.479Z,19.90
2023-09-22T19:53:02.640Z,19.90
2023-09-22T19:55:30.662Z,19.90
2023-09-22T19:57:59.973Z,19.90
2023-09-22T20:00:27.918Z,19.80
2023-09-22T20:02:56.410Z,19.80
2023-09-22T20:05:24.777Z,19.80
2023-09-22T20:07:53.117Z,19.80
2023-09-22T20:10:21.235Z,19.80
2023-09-22T20:12:49.271Z,19.80
2023-09-22T20:15:19.398Z,19.70
2023-09-22T20:17:47.438Z,19.70
2023-09-22T20:20:16.537Z,19.70
2023-09-22T20:22:45.840Z,19.60
2023-09-22T20:25:13.837Z,19.50
2023-09-22T20:27:41.756Z,19.50
2023-09-22T20:30:11.073Z,19.50
2023-09-22T20:32:40.570Z,19.40
2023-09-22T20:35:10.443Z,19.40
2023-09-22T20:37:38.958Z,19.30
2023-09-22T20:40:08.340Z,19.30
2023-09-22T20:42:36.801Z,19.40
2023-09-22T20:45:09.025Z,19.40
2023-09-22T20:47:37.197Z,19.30
2023-09-22T20:50:07.599Z,19.20
2023-09-22T20:52:36.326Z,19.20
2023-09-22T20:55:04.467Z,19.20
2023-09-22T20:57:32.430Z,19.20
2023-09-22T21:00:01.553Z,19.20
2023-09-22T21:02:30.340Z,19.20
2023-09-22T21:04:58.783Z,19.10
2023-09-22T21:07:28.757Z,19.10
2023-09-22T21:09:56.873Z,19.10
2023-09-22T21:12:25.488Z,19.10
2023-09-22T21:14:55.017Z,19.10
2023-09-22T21:17:23.393Z,19.10
2023-09-22T21:19:51.412Z,19.10
2023-09-22T21:22:21.217Z,19.10
2023-09-22T21:24:50.602Z,19.10
2023-09-22T21:27:18.587Z,19.10
2023-09-22T21:29:46.549Z,19.10
2023-09-22T21:32:14.934Z,19.10
2023-09-22T21:34:43.251Z,19.10
2023-09-22T21:37:11.334Z,19.00
2023-09-22T21:39:39.263Z,19.00
2023-09-22T21:42:08.625Z,19.10
2023-09-22T21:44:36.690Z,19.00
2023-09-22T21:47:04.765Z,19.00
2023-09-22T21:49:32.769Z,19.00
2023-09-22T21:52:00.833Z,19.00
2023-09-22T21:54:29.920Z,18.90
2023-09-22T21:56:57.947Z,19.00
2023-09-22T21:59:27.257Z,19.00
2023-09-22T22:01:55.215Z,19.00
2023-09-22T22:04:23.332Z,19.00
2023-09-22T22:06:53.602Z,19.00
2023-09-22T22:09:21.753Z,18.90
2023-09-22T22:11:50.712Z,19.00
2023-09-22T22:14:18.838Z,19.00
2023-09-22T22:16:48.175Z,19.00
2023-09-22T22:19:16.486Z,19.00
2023-09-22T22:21:44.529Z,19.00
2023-09-22T22:24:13.096Z,18.80
2023-09-22T22:26:44.149Z,18.80
2023-09-22T22:29:17.334Z,18.90
2023-09-22T22:31:48.906Z,18.90
2023-09-22T22:34:17.382Z,18.80
2023-09-22T22:36:47.803Z,18.90
2023-09-22T22:39:15.797Z,18.90
2023-09-22T22:41:43.730Z,18.90
2023-09-22T22:44:11.714Z,18.90
2023-09-22T22:46:40.684Z,18.90
2023-09-22T22:49:11.104Z,19.00
2023-09-22T22:51:39.587Z,18.90
2023-09-22T22:54:08.436Z,18.80
2023-09-22T22:56:37.081Z,18.80
2023-09-22T22:59:06.230Z,18.80
2023-09-22T23:01:35.512Z,18.80
2023-09-22T23:04:07.117Z,18.80
2023-09-22T23:06:39.195Z,18.80
2023-09-22T23:09:09.463Z,18.80
2023-09-22T23:11:38.340Z,18.80
2023-09-22T23:14:06.577Z,18.70
2023-09-22T23:16:34.639Z,18.70
2023-09-22T23:19:07.041Z,18.70
2023-09-22T23:21:38.033Z,18.60
2023-09-22T23:24:11.701Z,18.60
2023-09-22T23:26:42.206Z,18.60
2023-09-22T23:29:10.743Z,18.60
2023-09-22T23:31:38.793Z,18.50
2023-09-22T23:34:06.955Z,18.60
2023-09-22T23:36:38.177Z,18.60
2023-09-22T23:39:09.083Z,18.70
2023-09-22T23:41:38.124Z,18.60
2023-09-22T23:44:12.492Z,18.70
2023-09-22T23:46:44.751Z,18.70
2023-09-22T23:49:14.667Z,18.60
2023-09-22T23:51:44.585Z,18.60
2023-09-22T23:54:13.109Z,18.50
2023-09-22T23:56:41.691Z,18.20
2023-09-22T23:59:11.128Z,18.00
